Time,TemperatureF,DewpointF,PressureIn,WindDirection,WindDirectionDegrees,WindSpeedMPH,WindSpeedGustMPH,Humidity,HourlyPrecipIn,Conditions,Clouds,dailyrainin,SoftwareType,DateUTC
2013-01-11 00:04:00,76.0,-99.9,30.27,ESE,107,20.0,23.0,-999,-99.99,,,-99.99,,2013-01-11 05:04:00,
2013-01-11 00:13:00,76.0,-99.9,30.27,East,98,17.0,20.0,-999,-99.99,,,-99.99,,2013-01-11 05:13:00,
2013-01-11 00:23:00,76.0,-99.9,30.27,ESE,104,16.0,20.0,-999,-99.99,,,-99.99,,2013-01-11 05:23:00,
2013-01-11 00:33:00,76.0,-99.9,30.27,ESE,104,18.0,20.0,-999,-99.99,,,-99.99,,2013-01-11 05:33:00,
2013-01-11 00:43:00,76.0,-99.9,30.27,East,98,17.0,19.0,-999,-99.99,,,-99.99,,2013-01-11 05:43:00,
2013-01-11 00:53:00,76.0,-99.9,30.27,East,97,18.0,20.0,-999,-99.99,,,-99.99,,2013-01-11 05:53:00,
2013-01-11 01:03:00,76.0,-99.9,30.27,ESE,104,16.0,18.0,-999,-99.99,,,-99.99,,2013-01-11 06:03:00,
2013-01-11 01:12:00,76.0,-99.9,30.26,ESE,106,16.0,19.0,-999,-99.99,,,-99.99,,2013-01-11 06:12:00,
2013-01-11 01:22:00,76.0,-99.9,30.26,ESE,107,17.0,19.0,-999,-99.99,,,-99.99,,2013-01-11 06:22:00,
2013-01-11 01:33:00,76.0,-99.9,30.27,ESE,112,14.0,16.0,-999,-99.99,,,-99.99,,2013-01-11 06:33:00,
2013-01-11 01:42:00,76.0,-99.9,30.26,ESE,108,13.0,16.0,-999,-99.99,,,-99.99,,2013-01-11 06:42:00,
2013-01-11 01:52:00,76.0,-99.9,30.26,ESE,107,15.0,17.0,-999,-99.99,,,-99.99,,2013-01-11 06:52:00,
2013-01-11 02:02:00,76.0,-99.9,30.26,East,100,15.0,17.0,-999,-99.99,,,-99.99,,2013-01-11 07:02:00,
2013-01-11 02:12:00,75.0,-99.9,30.26,East,90,16.0,20.0,-999,-99.99,,,-99.99,,2013-01-11 07:12:00,
2013-01-11 02:22:00,76.0,-99.9,30.25,ESE,116,21.0,29.0,-999,-99.99,,,-99.99,,2013-01-11 07:22:00,
2013-01-11 02:32:00,76.0,-99.9,30.25,ESE,115,19.0,22.0,-999,-99.99,,,-99.99,,2013-01-11 07:32:00,
2013-01-11 02:42:00,76.0,-99.9,30.25,ESE,113,19.0,22.0,-999,-99.99,,,-99.99,,2013-01-11 07:42:00,
2013-01-11 02:53:00,76.0,-99.9,30.25,ESE,112,16.0,19.0,-999,-99.99,,,-99.99,,2013-01-11 07:53:00,
2013-01-11 03:02:00,76.0,-99.9,30.24,ESE,108,19.0,21.0,-999,-99.99,,,-99.99,,2013-01-11 08:02:00,
2013-01-11 03:12:00,76.0,-99.9,30.23,ESE,105,20.0,23.0,-999,-99.99,,,-99.99,,2013-01-11 08:12:00,
2013-01-11 03:22:00,76.0,-99.9,30.23,ESE,107,21.0,22.0,-999,-99.99,,,-99.99,,2013-01-11 08:22:00,
2013-01-11 03:32:00,76.0,-99.9,30.22,ESE,110,19.0,23.0,-999,-99.99,,,-99.99,,2013-01-11 08:32:00,
2013-01-11 03:42:00,76.0,-99.9,30.22,ESE,113,17.0,21.0,-999,-99.99,,,-99.99,,2013-01-11 08:42:00,
2013-01-11 03:53:00,76.0,-99.9,30.21,ESE,113,17.0,21.0,-999,-99.99,,,-99.99,,2013-01-11 08:53:00,
2013-01-11 04:03:00,76.0,-99.9,30.21,ESE,109,17.0,20.0,-999,-99.99,,,-99.99,,2013-01-11 09:03:00,
2013-01-11 04:12:00,76.0,-99.9,30.20,ESE,111,18.0,22.0,-999,-99.99,,,-99.99,,2013-01-11 09:12:00,
2013-01-11 04:23:00,76.0,-99.9,30.20,ESE,118,20.0,21.0,-999,-99.99,,,-99.99,,2013-01-11 09:23:00,
2013-01-11 04:32:00,76.0,-99.9,30.20,ESE,105,18.0,21.0,-999,-99.99,,,-99.99,,2013-01-11 09:32:00,
2013-01-11 04:43:00,76.0,-99.9,30.20,ESE,117,20.0,23.0,-999,-99.99,,,-99.99,,2013-01-11 09:43:00,
2013-01-11 04:53:00,76.0,-99.9,30.19,ESE,119,19.0,22.0,-999,-99.99,,,-99.99,,2013-01-11 09:53:00,
2013-01-11 05:02:00,76.0,-99.9,30.19,SE,130,17.0,22.0,-999,-99.99,,,-99.99,,2013-01-11 10:02:00,
2013-01-11 05:12:00,75.0,-99.9,30.19,SE,139,17.0,20.0,-999,-99.99,,,-99.99,,2013-01-11 10:12:00,
2013-01-11 05:22:00,76.0,-99.9,30.19,SE,125,19.0,23.0,-999,-99.99,,,-99.99,,2013-01-11 10:22:00,
2013-01-11 05:32:00,76.0,-99.9,30.19,ESE,122,15.0,20.0,-999,-99.99,,,-99.99,,2013-01-11 10:32:00,
2013-01-11 05:43:00,76.0,-99.9,30.19,ESE,112,17.0,21.0,-999,-99.99,,,-99.99,,2013-01-11 10:43:00,
2013-01-11 05:53:00,75.0,-99.9,30.19,ESE,116,21.0,23.0,-999,-99.99,,,-99.99,,2013-01-11 10:53:00,
2013-01-11 06:03:00,75.0,-99.9,30.19,ESE,115,19.0,21.0,-999,-99.99,,,-99.99,,2013-01-11 11:03:00,
2013-01-11 06:12:00,76.0,-99.9,30.19,ESE,123,18.0,20.0,-999,-99.99,,,-99.99,,2013-01-11 11:12:00,
2013-01-11 06:23:00,76.0,-99.9,30.19,SE,138,19.0,20.0,-999,-99.99,,,-99.99,,2013-01-11 11:23:00,
2013-01-11 06:33:00,76.0,-99.9,30.20,SE,132,17.0,22.0,-999,-99.99,,,-99.99,,2013-01-11 11:33:00,
2013-01-11 06:43:00,76.0,-99.9,30.20,SE,137,17.0,20.0,-999,-99.99,,,-99.99,,2013-01-11 11:43:00,
2013-01-11 06:53:00,76.0,-99.9,30.20,SE,142,17.0,20.0,-999,-99.99,,,-99.99,,2013-01-11 11:53:00,
2013-01-11 07:03:00,76.0,-99.9,30.20,SE,144,17.0,20.0,-999,-99.99,,,-99.99,,2013-01-11 12:03:00,
2013-01-11 07:12:00,75.0,-99.9,30.20,SE,146,16.0,20.0,-999,-99.99,,,-99.99,,2013-01-11 12:12:00,
2013-01-11 07:23:00,76.0,-99.9,30.20,SE,145,17.0,21.0,-999,-99.99,,,-99.99,,2013-01-11 12:23:00,
2013-01-11 07:33:00,76.0,-99.9,30.20,SE,140,16.0,19.0,-999,-99.99,,,-99.99,,2013-01-11 12:33:00,
2013-01-11 07:43:00,76.0,-99.9,30.21,SE,144,15.0,17.0,-999,-99.99,,,-99.99,,2013-01-11 12:43:00,
2013-01-11 07:53:00,76.0,-99.9,30.21,SE,138,16.0,18.0,-999,-99.99,,,-99.99,,2013-01-11 12:53:00,
2013-01-11 08:03:00,76.0,-99.9,30.22,SE,144,15.0,17.0,-999,-99.99,,,-99.99,,2013-01-11 13:03:00,
2013-01-11 08:13:00,76.0,-99.9,30.21,SE,144,14.0,17.0,-999,-99.99,,,-99.99,,2013-01-11 13:13:00,
2013-01-11 08:23:00,76.0,-99.9,30.22,SE,141,16.0,18.0,-999,-99.99,,,-99.99,,2013-01-11 13:23:00,
2013-01-11 08:33:00,76.0,-99.9,30.22,SSE,149,14.0,17.0,-999,-99.99,,,-99.99,,2013-01-11 13:33:00,
2013-01-11 08:43:00,76.0,-99.9,30.22,SSE,150,15.0,17.0,-999,-99.99,,,-99.99,,2013-01-11 13:43:00,
2013-01-11 08:53:00,76.0,-99.9,30.22,SE,141,15.0,17.0,-999,-99.99,,,-99.99,,2013-01-11 13:53:00,
2013-01-11 09:03:00,76.0,-99.9,30.22,SE,136,16.0,18.0,-999,-99.99,,,-99.99,,2013-01-11 14:03:00,
2013-01-11 09:12:00,75.0,-99.9,30.22,SE,137,15.0,18.0,-999,-99.99,,,-99.99,,2013-01-11 14:12:00,
2013-01-11 09:23:00,75.0,-99.9,30.23,SE,138,17.0,20.0,-999,-99.99,,,-99.99,,2013-01-11 14:23:00,
2013-01-11 09:33:00,76.0,-99.9,30.23,SE,140,17.0,20.0,-999,-99.99,,,-99.99,,2013-01-11 14:33:00,
2013-01-11 09:43:00,76.0,-99.9,30.23,ESE,119,21.0,23.0,-999,-99.99,,,-99.99,,2013-01-11 14:43:00,
2013-01-11 09:53:00,76.0,-99.9,30.24,SE,125,19.0,22.0,-999,-99.99,,,-99.99,,2013-01-11 14:53:00,
2013-01-11 10:03:00,76.0,-99.9,30.24,SE,137,17.0,20.0,-999,-99.99,,,-99.99,,2013-01-11 15:03:00,
2013-01-11 10:13:00,76.0,-99.9,30.25,SE,128,15.0,19.0,-999,-99.99,,,-99.99,,2013-01-11 15:13:00,
2013-01-11 10:23:00,76.0,-99.9,30.25,SE,128,16.0,19.0,-999,-99.99,,,-99.99,,2013-01-11 15:23:00,
2013-01-11 10:33:00,76.0,-99.9,30.25,ESE,114,15.0,17.0,-999,-99.99,,,-99.99,,2013-01-11 15:33:00,
2013-01-11 10:43:00,76.0,-99.9,30.25,ESE,104,17.0,19.0,-999,-99.99,,,-99.99,,2013-01-11 15:43:00,
2013-01-11 10:53:00,75.0,-99.9,30.25,East,91,17.0,21.0,-999,-99.99,,,-99.99,,2013-01-11 15:53:00,
2013-01-11 11:03:00,74.0,-99.9,30.25,East,97,20.0,23.0,-999,-99.99,,,-99.99,,2013-01-11 16:03:00,
2013-01-11 11:13:00,75.0,-99.9,30.25,East,81,16.0,20.0,-999,-99.99,,,-99.99,,2013-01-11 16:13:00,
2013-01-11 11:23:00,74.0,-99.9,30.25,ENE,74,16.0,18.0,-999,-99.99,,,-99.99,,2013-01-11 16:23:00,
2013-01-11 11:33:00,74.0,-99.9,30.24,East,93,20.0,23.0,-999,-99.99,,,-99.99,,2013-01-11 16:33:00,
2013-01-11 11:43:00,74.0,-99.9,30.25,East,95,19.0,22.0,-999,-99.99,,,-99.99,,2013-01-11 16:43:00,
2013-01-11 11:53:00,74.0,-99.9,30.24,East,89,13.0,18.0,-999,-99.99,,,-99.99,,2013-01-11 16:53:00,
2013-01-11 12:03:00,73.0,-99.9,30.24,ESE,115,10.0,16.0,-999,-99.99,,,-99.99,,2013-01-11 17:03:00,
2013-01-11 12:12:00,75.0,-99.9,30.23,East,93,21.0,24.0,-999,-99.99,,,-99.99,,2013-01-11 17:12:00,
2013-01-11 12:23:00,75.0,-99.9,30.23,East,83,21.0,25.0,-999,-99.99,,,-99.99,,2013-01-11 17:23:00,
2013-01-11 12:33:00,75.0,-99.9,30.23,East,87,19.0,23.0,-999,-99.99,,,-99.99,,2013-01-11 17:33:00,
2013-01-11 12:43:00,75.0,-99.9,30.23,East,82,19.0,23.0,-999,-99.99,,,-99.99,,2013-01-11 17:43:00,
2013-01-11 12:53:00,75.0,-99.9,30.23,East,79,19.0,23.0,-999,-99.99,,,-99.99,,2013-01-11 17:53:00,
2013-01-11 13:04:00,75.0,-99.9,30.22,East,85,18.0,23.0,-999,-99.99,,,-99.99,,2013-01-11 18:04:00,
2013-01-11 13:13:00,75.0,-99.9,30.21,East,86,18.0,22.0,-999,-99.99,,,-99.99,,2013-01-11 18:13:00,
2013-01-11 13:24:00,76.0,-99.9,30.21,East,84,19.0,22.0,-999,-99.99,,,-99.99,,2013-01-11 18:24:00,
2013-01-11 13:33:00,75.0,-99.9,30.21,East,82,18.0,22.0,-999,-99.99,,,-99.99,,2013-01-11 18:33:00,
2013-01-11 13:43:00,75.0,-99.9,30.21,East,87,17.0,20.0,-999,-99.99,,,-99.99,,2013-01-11 18:43:00,
2013-01-11 13:53:00,75.0,-99.9,30.20,East,86,19.0,21.0,-999,-99.99,,,-99.99,,2013-01-11 18:53:00,
2013-01-11 14:03:00,75.0,-99.9,30.20,East,91,19.0,23.0,-999,-99.99,,,-99.99,,2013-01-11 19:03:00,
2013-01-11 14:13:00,75.0,-99.9,30.19,ENE,75,19.0,22.0,-999,-99.99,,,-99.99,,2013-01-11 19:13:00,
2013-01-11 14:23:00,75.0,-99.9,30.19,East,83,17.0,20.0,-999,-99.99,,,-99.99,,2013-01-11 19:23:00,
2013-01-11 14:33:00,75.0,-99.9,30.19,East,93,17.0,20.0,-999,-99.99,,,-99.99,,2013-01-11 19:33:00,
2013-01-11 14:43:00,75.0,-99.9,30.19,East,94,17.0,19.0,-999,-99.99,,,-99.99,,2013-01-11 19:43:00,
2013-01-11 14:54:00,76.0,-99.9,30.19,East,84,16.0,18.0,-999,-99.99,,,-99.99,,2013-01-11 19:54:00,
2013-01-11 15:03:00,75.0,-99.9,30.18,East,100,16.0,18.0,-999,-99.99,,,-99.99,,2013-01-11 20:03:00,
2013-01-11 15:13:00,75.0,-99.9,30.18,East,96,17.0,20.0,-999,-99.99,,,-99.99,,2013-01-11 20:13:00,
2013-01-11 15:23:00,75.0,-99.9,30.18,East,101,18.0,20.0,-999,-99.99,,,-99.99,,2013-01-11 20:23:00,
2013-01-11 15:33:00,75.0,-99.9,30.18,ESE,102,18.0,20.0,-999,-99.99,,,-99.99,,2013-01-11 20:33:00,
2013-01-11 15:43:00,75.0,-99.9,30.18,ESE,102,18.0,21.0,-999,-99.99,,,-99.99,,2013-01-11 20:43:00,
2013-01-11 15:53:00,75.0,-99.9,30.18,ESE,106,18.0,20.0,-999,-99.99,,,-99.99,,2013-01-11 20:53:00,
2013-01-11 16:03:00,76.0,-99.9,30.18,ESE,103,18.0,20.0,-999,-99.99,,,-99.99,,2013-01-11 21:03:00,
2013-01-11 16:13:00,76.0,-99.9,30.18,East,101,16.0,19.0,-999,-99.99,,,-99.99,,2013-01-11 21:13:00,
2013-01-11 16:23:00,76.0,-99.9,30.18,East,97,14.0,17.0,-999,-99.99,,,-99.99,,2013-01-11 21:23:00,
2013-01-11 16:33:00,76.0,-99.9,30.18,East,97,15.0,17.0,-999,-99.99,,,-99.99,,2013-01-11 21:33:00,
2013-01-11 16:43:00,76.0,-99.9,30.18,East,92,15.0,17.0,-999,-99.99,,,-99.99,,2013-01-11 21:43:00,
2013-01-11 16:53:00,76.0,-99.9,30.17,East,92,16.0,18.0,-999,-99.99,,,-99.99,,2013-01-11 21:53:00,
2013-01-11 17:03:00,75.0,-99.9,30.17,East,98,17.0,19.0,-999,-99.99,,,-99.99,,2013-01-11 22:03:00,
2013-01-11 17:13:00,75.0,-99.9,30.17,ESE,104,17.0,19.0,-999,-99.99,,,-99.99,,2013-01-11 22:13:00,
2013-01-11 17:23:00,76.0,-99.9,30.17,ESE,106,15.0,18.0,-999,-99.99,,,-99.99,,2013-01-11 22:23:00,
2013-01-11 17:33:00,75.0,-99.9,30.17,ESE,108,17.0,19.0,-999,-99.99,,,-99.99,,2013-01-11 22:33:00,
2013-01-11 17:43:00,75.0,-99.9,30.17,East,99,15.0,17.0,-999,-99.99,,,-99.99,,2013-01-11 22:43:00,
2013-01-11 17:53:00,75.0,-99.9,30.17,ESE,102,15.0,17.0,-999,-99.99,,,-99.99,,2013-01-11 22:53:00,
2013-01-11 18:03:00,75.0,-99.9,30.17,ESE,106,15.0,17.0,-999,-99.99,,,-99.99,,2013-01-11 23:03:00,
2013-01-11 18:13:00,75.0,-99.9,30.17,East,100,14.0,17.0,-999,-99.99,,,-99.99,,2013-01-11 23:13:00,
2013-01-11 18:23:00,75.0,-99.9,30.17,ESE,106,14.0,15.0,-999,-99.99,,,-99.99,,2013-01-11 23:23:00,
2013-01-11 18:33:00,75.0,-99.9,30.18,East,101,13.0,15.0,-999,-99.99,,,-99.99,,2013-01-11 23:33:00,
2013-01-11 18:43:00,75.0,-99.9,30.17,ESE,106,15.0,17.0,-999,-99.99,,,-99.99,,2013-01-11 23:43:00,
2013-01-11 18:54:00,75.0,-99.9,30.18,ESE,103,15.0,17.0,-999,-99.99,,,-99.99,,2013-01-11 23:54:00,
2013-01-11 19:03:00,75.0,-99.9,30.18,ESE,103,15.0,18.0,-999,-99.99,,,-99.99,,2013-01-12 00:03:00,
2013-01-11 19:13:00,75.0,-99.9,30.17,ESE,105,17.0,20.0,-999,-99.99,,,-99.99,,2013-01-12 00:13:00,
2013-01-11 19:23:00,75.0,-99.9,30.17,ESE,108,16.0,19.0,-999,-99.99,,,-99.99,,2013-01-12 00:23:00,
2013-01-11 19:33:00,75.0,-99.9,30.17,East,96,17.0,20.0,-999,-99.99,,,-99.99,,2013-01-12 00:33:00,
2013-01-11 19:43:00,75.0,-99.9,30.18,ESE,105,17.0,18.0,-999,-99.99,,,-99.99,,2013-01-12 00:43:00,
2013-01-11 19:53:00,75.0,-99.9,30.18,East,101,15.0,17.0,-999,-99.99,,,-99.99,,2013-01-12 00:53:00,
2013-01-11 20:03:00,75.0,-99.9,30.18,ESE,102,16.0,19.0,-999,-99.99,,,-99.99,,2013-01-12 01:03:00,
2013-01-11 20:13:00,75.0,-99.9,30.18,East,92,17.0,19.0,-999,-99.99,,,-99.99,,2013-01-12 01:13:00,
2013-01-11 20:23:00,75.0,-99.9,30.18,East,91,16.0,18.0,-999,-99.99,,,-99.99,,2013-01-12 01:23:00,
2013-01-11 20:33:00,75.0,-99.9,30.19,East,92,15.0,18.0,-999,-99.99,,,-99.99,,2013-01-12 01:33:00,
2013-01-11 20:43:00,75.0,-99.9,30.19,East,86,16.0,18.0,-999,-99.99,,,-99.99,,2013-01-12 01:43:00,
2013-01-11 20:53:00,75.0,-99.9,30.19,East,91,16.0,18.0,-999,-99.99,,,-99.99,,2013-01-12 01:53:00,
2013-01-11 21:03:00,75.0,-99.9,30.19,East,85,16.0,19.0,-999,-99.99,,,-99.99,,2013-01-12 02:03:00,
2013-01-11 21:12:00,75.0,-99.9,30.19,East,85,16.0,20.0,-999,-99.99,,,-99.99,,2013-01-12 02:12:00,
2013-01-11 21:22:00,75.0,-99.9,30.19,East,81,16.0,19.0,-999,-99.99,,,-99.99,,2013-01-12 02:22:00,
2013-01-11 21:33:00,75.0,-99.9,30.19,East,83,15.0,18.0,-999,-99.99,,,-99.99,,2013-01-12 02:33:00,
2013-01-11 21:43:00,75.0,-99.9,30.19,East,83,16.0,20.0,-999,-99.99,,,-99.99,,2013-01-12 02:43:00,
2013-01-11 21:53:00,75.0,-99.9,30.19,East,87,17.0,20.0,-999,-99.99,,,-99.99,,2013-01-12 02:53:00,
2013-01-11 22:03:00,75.0,-99.9,30.19,East,83,18.0,20.0,-999,-99.99,,,-99.99,,2013-01-12 03:03:00,
2013-01-11 22:12:00,75.0,-99.9,30.19,East,93,17.0,21.0,-999,-99.99,,,-99.99,,2013-01-12 03:12:00,
2013-01-11 22:22:00,75.0,-99.9,30.19,East,96,18.0,24.0,-999,-99.99,,,-99.99,,2013-01-12 03:22:00,
2013-01-11 22:33:00,75.0,-99.9,30.19,East,87,19.0,22.0,-999,-99.99,,,-99.99,,2013-01-12 03:33:00,
2013-01-11 22:43:00,75.0,-99.9,30.19,East,83,18.0,22.0,-999,-99.99,,,-99.99,,2013-01-12 03:43:00,
2013-01-11 22:53:00,75.0,-99.9,30.19,East,83,19.0,22.0,-999,-99.99,,,-99.99,,2013-01-12 03:53:00,
2013-01-11 23:03:00,75.0,-99.9,30.18,East,87,19.0,23.0,-999,-99.99,,,-99.99,,2013-01-12 04:03:00,
2013-01-11 23:12:00,75.0,-99.9,30.18,East,100,19.0,22.0,-999,-99.99,,,-99.99,,2013-01-12 04:12:00,
2013-01-11 23:22:00,75.0,-99.9,30.18,East,92,19.0,23.0,-999,-99.99,,,-99.99,,2013-01-12 04:22:00,
2013-01-11 23:33:00,75.0,-99.9,30.18,East,100,19.0,22.0,-999,-99.99,,,-99.99,,2013-01-12 04:33:00,
2013-01-11 23:43:00,75.0,-99.9,30.17,East,97,20.0,23.0,-999,-99.99,,,-99.99,,2013-01-12 04:43:00,
2013-01-11 23:53:00,75.0,-99.9,30.17,East,101,19.0,21.0,-999,-99.99,,,-99.99,,2013-01-12 04:53:00,